Time;durP1;ratioP1;P1;durP2;ratioP2;P2;SDS_P1;SDS_P2;PMS_P1;PMS_P2;Temp;Humidity;BMP_temperature;BMP_pressure;BME280_temperature;BME280_humidity;BME280_pressure;Samples;Min_cycle;Max_cycle;Signal;HPM_P1;HPM_P2
2021/12/09 00:02:20;;;;;;;;;;;;;;;27.30;67.93;101207.22;5076893;28;70107;-34
2021/12/09 00:04:50;;;;;;;;;;;;;;;27.27;67.81;101208.44;5079522;27;65608;-35
2021/12/09 00:07:20;;;;;;;;;;;;;;;27.31;67.93;101219.69;5079515;27;69609;-33
2021/12/09 00:09:51;;;;;;;;;;;;;;;27.34;68.32;101224.69;5079193;27;66558;-34
2021/12/09 00:12:22;;;;;;;;;;;;;;;27.40;68.22;101227.47;5079212;27;70079;-34
2021/12/09 00:14:52;;;;;;;;;;;;;;;27.45;67.96;101226.91;5080395;27;66990;-34
2021/12/09 00:17:22;;;;;;;;;;;;;;;27.46;67.57;101222.34;5073463;27;69151;-33
2021/12/09 00:19:52;;;;;;;;;;;;;;;27.46;67.91;101233.94;5077697;27;66830;-34
2021/12/09 00:22:23;;;;;;;;;;;;;;;27.52;68.14;101238.56;5078527;27;70540;-32
2021/12/09 00:24:53;;;;;;;;;;;;;;;27.59;68.48;101242.19;5081070;27;67116;-37
2021/12/09 00:27:23;;;;;;;;;;;;;;;27.67;68.07;101246.66;5080844;27;69476;-33
2021/12/09 00:29:53;;;;;;;;;;;;;;;27.74;68.42;101247.53;5081089;27;66516;-33
2021/12/09 00:32:23;;;;;;;;;;;;;;;27.83;66.41;101256.38;5081908;27;70498;-34
2021/12/09 00:34:53;;;;;;;;;;;;;;;27.90;65.44;101260.00;5082739;27;65929;-33
2021/12/09 00:37:34;;;;;;;;;;;;;;;27.95;65.44;101268.34;5084430;27;70308;-33
2021/12/09 00:40:05;;;;;;;;;;;;;;;28.00;64.97;101265.91;5083224;27;65424;-34
2021/12/09 00:42:35;;;;;;;;;;;;;;;28.06;64.62;101272.41;5082711;27;70581;-33
2021/12/09 00:45:05;;;;;;;;;;;;;;;28.10;64.78;101278.25;5081554;27;66009;-33
2021/12/09 00:47:35;;;;;;;;;;;;;;;28.13;64.24;101275.16;5078840;27;70304;-34
2021/12/09 00:50:06;;;;;;;;;;;;;;;28.16;64.46;101274.78;5078350;27;64768;-33
2021/12/09 00:52:36;;;;;;;;;;;;;;;28.18;64.45;101281.66;5077177;27;70758;-34
2021/12/09 00:55:08;;;;;;;;;;;;;;;28.22;64.24;101284.78;5061622;28;67291;-33
2021/12/09 00:57:39;;;;;;;;;;;;;;;28.24;63.96;101270.06;5080966;27;69184;-35
2021/12/09 01:00:11;;;;;;;;;;;;;;;28.27;63.99;101269.69;5079704;27;66071;-34
2021/12/09 01:02:41;;;;;;;;;;;;;;;28.30;63.73;101273.88;5080254;27;69153;-34
2021/12/09 01:05:12;;;;;;;;;;;;;;;28.32;64.04;101276.38;5079413;27;66666;-35
2021/12/09 01:07:42;;;;;;;;;;;;;;;28.35;63.70;101278.69;5062281;27;69892;-34
2021/12/09 01:10:13;;;;;;;;;;;;;;;28.37;63.69;101285.56;5079044;27;65685;-34
2021/12/09 01:12:44;;;;;;;;;;;;;;;28.35;63.61;101295.72;5081124;27;70697;-34
2021/12/09 01:15:15;;;;;;;;;;;;;;;28.40;63.85;101306.75;5079459;27;67008;-34
2021/12/09 01:17:45;;;;;;;;;;;;;;;28.42;63.61;101307.44;5080554;27;69904;-35
2021/12/09 01:20:17;;;;;;;;;;;;;;;28.43;63.58;101301.00;5078553;27;65279;-35
2021/12/09 01:22:47;;;;;;;;;;;;;;;28.42;63.55;101310.13;5079673;27;69788;-34
2021/12/09 01:25:18;;;;;;;;;;;;;;;28.48;63.35;101327.41;5079633;27;66177;-34
2021/12/09 01:27:51;;;;;;;;;;;;;;;28.48;63.51;101328.25;5078782;27;69051;-33
2021/12/09 01:30:22;;;;;;;;;;;;;;;28.50;63.46;101339.69;5079722;27;66952;-33
2021/12/09 01:32:54;;;;;;;;;;;;;;;28.54;63.29;101325.81;5079639;27;69780;-33
2021/12/09 01:35:28;;;;;;;;;;;;;;;28.55;63.43;101324.78;5065499;27;67801;-34
2021/12/09 01:38:33;;;;;;;;;;;;;;;28.57;63.33;101334.34;5079600;27;69402;-34
2021/12/09 01:41:05;;;;;;;;;;;;;;;28.61;63.39;101324.00;5056354;27;66039;-35
2021/12/09 01:43:44;;;;;;;;;;;;;;;28.62;63.22;101326.50;5062109;27;69221;-34
2021/12/09 01:46:20;;;;;;;;;;;;;;;28.64;63.27;101324.44;5078171;27;66748;-34
2021/12/09 01:48:52;;;;;;;;;;;;;;;28.67;63.06;101323.22;5079419;27;70260;-34
2021/12/09 01:51:22;;;;;;;;;;;;;;;28.69;63.23;101307.66;5077970;27;66147;-34
2021/12/09 01:53:53;;;;;;;;;;;;;;;28.70;63.04;101301.25;5079478;27;70246;-34
2021/12/09 01:56:24;;;;;;;;;;;;;;;28.66;63.26;101289.16;5078905;27;65719;-34
2021/12/09 01:58:55;;;;;;;;;;;;;;;28.74;63.28;101297.09;5077758;27;70947;-34
2021/12/09 02:01:26;;;;;;;;;;;;;;;28.76;62.82;101288.81;5078932;27;65150;-33
2021/12/09 02:03:58;;;;;;;;;;;;;;;28.78;63.20;101295.69;5078248;27;70174;-34
2021/12/09 02:06:30;;;;;;;;;;;;;;;28.80;62.84;101284.69;5077009;27;67071;-33
2021/12/09 02:09:02;;;;;;;;;;;;;;;28.82;63.05;101288.03;5079264;27;71269;-33
2021/12/09 02:11:36;;;;;;;;;;;;;;;28.84;62.81;101286.81;5060475;28;65547;-34
2021/12/09 02:14:18;;;;;;;;;;;;;;;28.85;62.77;101287.63;5056794;28;69012;-37
2021/12/09 02:16:54;;;;;;;;;;;;;;;28.88;63.05;101298.88;5066802;27;66522;-34
2021/12/09 02:19:26;;;;;;;;;;;;;;;28.91;62.85;101297.66;5078497;27;70915;-34
2021/12/09 02:22:04;;;;;;;;;;;;;;;28.93;62.63;101309.91;5078773;27;66491;-32
2021/12/09 02:24:47;;;;;;;;;;;;;;;28.96;62.48;101306.81;5077249;27;69931;-33
2021/12/09 02:27:22;;;;;;;;;;;;;;;28.99;62.58;101307.47;5079059;27;66780;-35
2021/12/09 02:29:58;;;;;;;;;;;;;;;29.01;62.33;101302.72;5076073;27;70078;-34
2021/12/09 02:32:29;;;;;;;;;;;;;;;29.03;62.27;101295.22;5076269;28;66438;-34
2021/12/09 02:35:05;;;;;;;;;;;;;;;29.05;62.67;101295.91;5077963;27;69925;-33
2021/12/09 02:37:44;;;;;;;;;;;;;;;29.07;62.83;101288.44;5078800;27;66967;-35
2021/12/09 02:40:21;;;;;;;;;;;;;;;29.12;62.27;101294.09;5077993;28;70218;-34
2021/12/09 02:42:53;;;;;;;;;;;;;;;29.13;62.61;101293.88;5056670;28;66392;-33
2021/12/09 02:45:25;;;;;;;;;;;;;;;29.15;62.59;101299.91;5073844;27;70088;-34
2021/12/09 02:47:56;;;;;;;;;;;;;;;29.18;62.12;101294.13;5077714;27;65765;-33
2021/12/09 02:50:28;;;;;;;;;;;;;;;29.22;62.10;101294.53;5060496;27;70673;-33
2021/12/09 02:52:59;;;;;;;;;;;;;;;29.24;62.42;101292.47;5078335;27;66615;-34
2021/12/09 02:55:32;;;;;;;;;;;;;;;29.27;61.96;101292.09;5058072;27;71385;-34
2021/12/09 02:58:04;;;;;;;;;;;;;;;29.29;62.33;101295.44;5076747;27;65844;-34
2021/12/09 03:00:53;;;;;;;;;;;;;;;29.32;62.36;101294.19;5059949;27;69274;-33
2021/12/09 03:03:29;;;;;;;;;;;;;;;29.35;62.37;101293.78;5075643;27;66575;-34
2021/12/09 03:06:03;;;;;;;;;;;;;;;29.36;62.01;101301.72;5076997;27;69741;-34
2021/12/09 03:08:38;;;;;;;;;;;;;;;29.39;62.20;101301.31;5076920;27;66376;-33
2021/12/09 03:11:15;;;;;;;;;;;;;;;29.42;61.78;101305.47;5076288;27;70128;-35
2021/12/09 03:13:47;;;;;;;;;;;;;;;29.44;62.13;101307.97;5076649;27;65988;-34
2021/12/09 03:16:22;;;;;;;;;;;;;;;29.48;61.73;101303.84;5074093;27;70053;-34
2021/12/09 03:18:58;;;;;;;;;;;;;;;29.49;62.12;101300.09;5060404;28;65508;-35
2021/12/09 03:21:39;;;;;;;;;;;;;;;29.52;62.05;101302.41;5074695;27;71083;-34
2021/12/09 03:24:12;;;;;;;;;;;;;;;29.55;61.88;101304.69;5077704;27;65427;-34
2021/12/09 03:26:49;;;;;;;;;;;;;;;29.57;61.46;101311.56;5075307;27;69975;-33
2021/12/09 03:29:19;;;;;;;;;;;;;;;29.60;61.43;101307.63;5076945;27;65905;-34
2021/12/09 03:31:53;;;;;;;;;;;;;;;29.62;61.71;101306.41;5077544;27;69781;-34
2021/12/09 03:34:25;;;;;;;;;;;;;;;29.63;61.31;101307.25;5077689;27;66569;-34
2021/12/09 03:36:58;;;;;;;;;;;;;;;29.67;61.30;101302.28;5077336;27;69762;-34
2021/12/09 03:39:32;;;;;;;;;;;;;;;29.68;61.56;101304.78;5075046;27;66435;-33
2021/12/09 03:42:04;;;;;;;;;;;;;;;29.70;61.09;101302.72;5077032;27;70174;-34
2021/12/09 03:44:35;;;;;;;;;;;;;;;29.72;61.07;101300.63;5076226;27;67083;-35
2021/12/09 03:47:07;;;;;;;;;;;;;;;29.73;61.11;101296.91;5077056;27;70174;-35
2021/12/09 03:49:39;;;;;;;;;;;;;;;29.75;61.12;101294.81;5077132;27;66438;-35
2021/12/09 03:52:10;;;;;;;;;;;;;;;29.64;61.46;101268.34;5077700;27;69800;-34
2021/12/09 03:54:41;;;;;;;;;;;;;;;29.77;61.12;101284.63;5078278;27;67147;-35
2021/12/09 03:57:11;;;;;;;;;;;;;;;29.81;61.53;101279.66;5078412;27;69668;-34
2021/12/09 03:59:42;;;;;;;;;;;;;;;29.83;61.45;101274.88;5081346;27;66009;-34
2021/12/09 04:02:13;;;;;;;;;;;;;;;29.85;61.44;101278.22;5081614;27;70063;-34
2021/12/09 04:04:43;;;;;;;;;;;;;;;29.88;61.47;101276.97;5068016;27;66126;-34
2021/12/09 04:07:13;;;;;;;;;;;;;;;29.89;60.86;101260.53;5078450;27;70248;-34
2021/12/09 04:09:43;;;;;;;;;;;;;;;29.92;61.21;101264.69;5082142;27;66671;-34
2021/12/09 04:12:14;;;;;;;;;;;;;;;29.94;60.80;101259.94;5079628;27;69399;-34
2021/12/09 04:14:44;;;;;;;;;;;;;;;29.96;61.32;101257.84;5079876;27;66613;-33
2021/12/09 04:17:15;;;;;;;;;;;;;;;29.99;60.79;101249.34;5080449;27;71912;-34
2021/12/09 04:19:47;;;;;;;;;;;;;;;30.02;61.18;101246.22;5078783;27;65271;-33
2021/12/09 04:22:18;;;;;;;;;;;;;;;30.04;60.88;101238.72;5078795;27;69304;-34
2021/12/09 04:24:49;;;;;;;;;;;;;;;30.05;61.20;101227.69;5081607;27;65353;-34
2021/12/09 04:27:20;;;;;;;;;;;;;;;30.08;60.65;101217.50;5080874;27;70103;-34
2021/12/09 04:29:50;;;;;;;;;;;;;;;29.98;60.54;101196.28;5079472;27;66299;-34
2021/12/09 04:32:21;;;;;;;;;;;;;;;30.12;60.56;101214.19;5081323;27;70259;-34
2021/12/09 04:34:53;;;;;;;;;;;;;;;30.15;60.99;101218.34;5079868;27;65604;-34
2021/12/09 04:37:24;;;;;;;;;;;;;;;30.17;60.79;101217.09;5078604;27;70108;-33
2021/12/09 04:39:54;;;;;;;;;;;;;;;30.20;60.63;101216.69;5081405;27;66643;-33
2021/12/09 04:42:24;;;;;;;;;;;;;;;30.22;60.47;101214.63;5078842;27;69075;-35
2021/12/09 04:44:54;;;;;;;;;;;;;;;30.24;60.41;101211.72;5079502;27;66942;-34
2021/12/09 04:47:24;;;;;;;;;;;;;;;30.25;60.79;101214.19;5079981;27;70210;-33
2021/12/09 04:49:54;;;;;;;;;;;;;;;30.26;60.89;101201.53;5081152;27;66351;-34
2021/12/09 04:52:24;;;;;;;;;;;;;;;30.27;60.57;101204.00;5079015;27;70037;-34
2021/12/09 04:54:54;;;;;;;;;;;;;;;30.28;60.27;101208.41;5080471;27;65648;-35
2021/12/09 04:57:25;;;;;;;;;;;;;;;30.28;60.39;101197.56;5079562;27;69438;-34
2021/12/09 04:59:55;;;;;;;;;;;;;;;30.27;60.86;101182.34;5079942;27;66819;-34
2021/12/09 05:03:13;;;;;;;;;;;;;;;30.31;60.35;101179.22;5080314;27;69450;-34
2021/12/09 05:05:18;;;;;;;;;;;;;;;30.32;60.25;101175.50;5078784;27;65616;-34
2021/12/09 05:07:48;;;;;;;;;;;;;;;30.34;60.58;101162.56;5079611;27;70004;-34
2021/12/09 05:10:18;;;;;;;;;;;;;;;30.36;60.65;101166.72;5079260;27;65628;-35
2021/12/09 05:12:48;;;;;;;;;;;;;;;30.37;60.37;101154.88;5081188;27;70796;-34
2021/12/09 05:15:18;;;;;;;;;;;;;;;30.39;60.16;101154.66;5080072;27;66961;-34
2021/12/09 05:17:48;;;;;;;;;;;;;;;30.41;60.04;101156.09;5078080;27;69178;-34
2021/12/09 05:20:18;;;;;;;;;;;;;;;30.42;60.12;101151.53;5080059;27;66523;-33
2021/12/09 05:22:48;;;;;;;;;;;;;;;30.44;60.46;101152.16;5080087;27;69949;-34
2021/12/09 05:25:18;;;;;;;;;;;;;;;30.44;60.07;101146.75;5066802;27;66564;-34
2021/12/09 05:27:49;;;;;;;;;;;;;;;30.46;60.12;101128.41;5078443;27;70570;-36
2021/12/09 05:30:24;;;;;;;;;;;;;;;30.47;60.60;101130.91;5079339;27;66302;-34
2021/12/09 05:32:55;;;;;;;;;;;;;;;30.49;60.20;101128.00;5078621;27;70195;-35
2021/12/09 05:35:25;;;;;;;;;;;;;;;30.50;60.53;101129.66;5074697;27;65461;-35
2021/12/09 05:37:56;;;;;;;;;;;;;;;30.50;60.54;101118.81;5079675;27;69222;-35
2021/12/09 05:40:26;;;;;;;;;;;;;;;30.54;60.04;101108.41;5077201;27;66709;-33
2021/12/09 05:42:57;;;;;;;;;;;;;;;30.54;60.09;101105.72;5080454;27;68908;-35
2021/12/09 05:45:28;;;;;;;;;;;;;;;30.55;60.09;101104.66;5079342;27;66133;-34
2021/12/09 05:47:59;;;;;;;;;;;;;;;30.56;60.54;101096.31;5078797;27;69721;-34
2021/12/09 05:50:29;;;;;;;;;;;;;;;30.57;60.06;101094.44;5078537;27;67196;-35
2021/12/09 05:53:00;;;;;;;;;;;;;;;30.58;60.55;101096.09;5080355;27;69085;-34
2021/12/09 05:55:30;;;;;;;;;;;;;;;30.59;60.44;101089.63;5077826;27;66402;-34
2021/12/09 05:58:01;;;;;;;;;;;;;;;30.59;60.40;101090.50;5079971;27;70481;-34
2021/12/09 06:00:31;;;;;;;;;;;;;;;30.60;60.66;101085.91;5076153;27;66390;-33
2021/12/09 06:03:02;;;;;;;;;;;;;;;30.60;60.77;101078.59;5069197;27;69602;-34
2021/12/09 06:05:33;;;;;;;;;;;;;;;30.60;60.30;101075.06;5079049;27;65929;-33
2021/12/09 06:08:04;;;;;;;;;;;;;;;30.60;60.83;101075.06;5078805;27;68431;-33
2021/12/09 06:10:36;;;;;;;;;;;;;;;30.60;60.79;101070.47;5078890;27;66995;-35
2021/12/09 06:13:07;;;;;;;;;;;;;;;30.61;60.77;101064.00;5080126;27;70405;-34
2021/12/09 06:15:38;;;;;;;;;;;;;;;30.61;60.84;101064.00;5077224;27;65475;-33
2021/12/09 06:18:12;;;;;;;;;;;;;;;30.60;60.52;101065.06;5078306;27;71743;-34
2021/12/09 06:20:42;;;;;;;;;;;;;;;30.60;61.19;101048.81;5078862;27;65171;-33
2021/12/09 06:23:13;;;;;;;;;;;;;;;30.61;61.20;101061.31;5077273;27;69630;-34
2021/12/09 06:25:43;;;;;;;;;;;;;;;30.59;61.03;101058.00;5078394;28;65168;-34
2021/12/09 06:28:14;;;;;;;;;;;;;;;30.62;61.01;101057.56;5079468;27;69739;-33
2021/12/09 06:30:45;;;;;;;;;;;;;;;30.58;61.33;101048.19;5088212;27;66436;-34
2021/12/09 06:33:15;;;;;;;;;;;;;;;30.62;61.19;101051.31;5080360;27;70145;-34
2021/12/09 06:35:45;;;;;;;;;;;;;;;30.54;61.27;101028.03;5079371;27;66275;-34
2021/12/09 06:38:16;;;;;;;;;;;;;;;30.63;61.00;101034.84;5076382;27;69742;-34
2021/12/09 06:40:46;;;;;;;;;;;;;;;30.60;61.08;101029.03;5078926;27;66273;-35
2021/12/09 06:43:17;;;;;;;;;;;;;;;30.64;61.31;101039.22;5079084;27;69501;-34
2021/12/09 06:45:47;;;;;;;;;;;;;;;30.64;60.73;101036.50;5075747;27;66494;-34
2021/12/09 06:48:17;;;;;;;;;;;;;;;30.65;61.44;101035.47;5078932;27;69796;-33
2021/12/09 06:50:47;;;;;;;;;;;;;;;30.65;61.37;101029.25;5079126;27;65912;-33
2021/12/09 06:53:18;;;;;;;;;;;;;;;30.65;61.31;101030.06;5075733;28;70309;-33
2021/12/09 06:55:50;;;;;;;;;;;;;;;30.65;61.05;101032.78;5077955;27;65963;-33
2021/12/09 06:58:21;;;;;;;;;;;;;;;30.65;61.52;101035.47;5076592;27;69671;-33
2021/12/09 07:00:54;;;;;;;;;;;;;;;30.65;61.07;101032.78;5078360;27;66126;-34
2021/12/09 07:03:25;;;;;;;;;;;;;;;30.65;61.13;101040.91;5077485;27;70021;-33
2021/12/09 07:05:56;;;;;;;;;;;;;;;30.66;61.28;101042.53;5077367;27;66075;-34
2021/12/09 07:08:26;;;;;;;;;;;;;;;30.65;61.53;101046.31;5078000;27;69471;-34
2021/12/09 07:10:57;;;;;;;;;;;;;;;30.60;61.25;101032.56;5078599;27;65423;-34
2021/12/09 07:13:30;;;;;;;;;;;;;;;30.66;61.71;101044.44;5075119;27;69242;-34
2021/12/09 07:16:01;;;;;;;;;;;;;;;30.65;61.61;101040.91;5076900;27;66277;-35
2021/12/09 07:18:36;;;;;;;;;;;;;;;30.64;61.77;101041.91;5076425;27;70355;-34
2021/12/09 07:21:08;;;;;;;;;;;;;;;30.64;61.86;101038.38;5078010;27;66808;-34
2021/12/09 07:23:41;;;;;;;;;;;;;;;30.62;61.92;101035.91;5077011;27;69234;-33
2021/12/09 07:26:12;;;;;;;;;;;;;;;30.63;61.47;101037.56;5077697;27;65557;-35
2021/12/09 07:28:45;;;;;;;;;;;;;;;30.62;61.40;101052.16;5077146;27;68972;-34
2021/12/09 07:31:16;;;;;;;;;;;;;;;30.62;61.58;101046.75;5076475;27;66144;-35
2021/12/09 07:33:47;;;;;;;;;;;;;;;30.61;62.04;101047.75;5076644;27;69033;-34
2021/12/09 07:36:18;;;;;;;;;;;;;;;30.61;61.82;101050.47;5070490;27;66219;-34
2021/12/09 07:38:49;;;;;;;;;;;;;;;30.58;61.69;101048.19;5077940;27;70165;-35
2021/12/09 07:41:21;;;;;;;;;;;;;;;30.58;62.20;101050.91;5077000;28;67222;-34
2021/12/09 07:43:53;;;;;;;;;;;;;;;30.58;61.66;101053.63;5078768;27;69729;-34
2021/12/09 07:46:27;;;;;;;;;;;;;;;30.53;62.14;101039.88;5078078;27;65738;-36
2021/12/09 07:48:59;;;;;;;;;;;;;;;30.57;62.08;101049.25;5078533;27;70297;-41
2021/12/09 07:51:30;;;;;;;;;;;;;;;30.56;62.34;101049.44;5075913;27;66066;-33
2021/12/09 07:54:02;;;;;;;;;;;;;;;30.55;62.40;101037.81;5077137;27;69144;-34
2021/12/09 07:56:33;;;;;;;;;;;;;;;30.54;62.39;101033.44;5077121;27;66268;-36
2021/12/09 07:59:04;;;;;;;;;;;;;;;30.53;61.93;101037.19;5076595;27;69772;-34
2021/12/09 08:01:35;;;;;;;;;;;;;;;30.54;62.36;101035.31;5075976;27;66020;-34
2021/12/09 08:04:07;;;;;;;;;;;;;;;30.51;61.83;101033.88;5076863;27;69259;-36
2021/12/09 08:06:38;;;;;;;;;;;;;;;30.53;62.20;101036.34;5078017;27;65443;-34
2021/12/09 08:09:10;;;;;;;;;;;;;;;30.51;61.82;101033.88;5076009;28;70530;-35
2021/12/09 08:11:42;;;;;;;;;;;;;;;30.53;62.50;101034.47;5077557;27;66539;-35
2021/12/09 08:14:16;;;;;;;;;;;;;;;30.50;62.36;101027.59;5076738;27;69135;-33
2021/12/09 08:16:56;;;;;;;;;;;;;;;30.53;62.44;101037.19;5076071;27;66188;-40
2021/12/09 08:19:34;;;;;;;;;;;;;;;30.49;62.02;101031.38;5075111;27;70075;-34
2021/12/09 08:22:04;;;;;;;;;;;;;;;30.50;62.52;101033.03;5074537;27;67044;-35
2021/12/09 08:24:35;;;;;;;;;;;;;;;30.50;62.08;101027.59;5076662;27;69403;-33
2021/12/09 08:27:06;;;;;;;;;;;;;;;30.51;62.46;101031.16;5077353;27;66465;-35
2021/12/09 08:29:36;;;;;;;;;;;;;;;30.50;62.33;101027.59;5058517;27;68971;-35
2021/12/09 08:32:06;;;;;;;;;;;;;;;30.50;62.55;101021.38;5078125;27;66184;-35
2021/12/09 08:34:37;;;;;;;;;;;;;;;30.49;62.19;101025.94;5059718;27;69158;-33
2021/12/09 08:37:07;;;;;;;;;;;;;;;30.49;62.48;101023.25;5059193;27;65744;-34
2021/12/09 08:39:38;;;;;;;;;;;;;;;30.47;62.36;101017.22;5077124;27;70549;-34
2021/12/09 08:42:20;;;;;;;;;;;;;;;30.46;62.85;101020.16;5053997;28;65609;-34
2021/12/09 08:44:51;;;;;;;;;;;;;;;30.45;62.32;101015.75;5071083;27;70028;-33
2021/12/09 08:47:21;;;;;;;;;;;;;;;30.46;62.56;101020.16;5081427;27;66354;-35
2021/12/09 08:49:51;;;;;;;;;;;;;;;30.45;62.90;101018.47;5079407;27;70071;-34
2021/12/09 08:52:22;;;;;;;;;;;;;;;30.45;62.93;101023.88;5079134;27;66331;-33
2021/12/09 08:54:52;;;;;;;;;;;;;;;30.45;62.94;101024.72;5079655;27;70276;-33
2021/12/09 08:57:26;;;;;;;;;;;;;;;30.44;62.31;101014.09;5079452;27;66312;-34
2021/12/09 08:59:56;;;;;;;;;;;;;;;30.44;63.04;101019.53;5080498;27;70372;-34
2021/12/09 09:02:26;;;;;;;;;;;;;;;30.43;62.43;101020.56;5079984;27;66933;-34
2021/12/09 09:04:58;;;;;;;;;;;;;;;30.43;62.54;101016.00;5080206;27;70846;-34
2021/12/09 09:07:28;;;;;;;;;;;;;;;30.42;62.45;101018.91;5079968;27;66803;-34
2021/12/09 09:09:58;;;;;;;;;;;;;;;30.41;62.95;101020.78;5079842;27;69585;-34
2021/12/09 09:12:30;;;;;;;;;;;;;;;30.41;63.14;101018.06;5080343;27;67186;-33
2021/12/09 09:15:05;;;;;;;;;;;;;;;30.40;63.17;101015.59;5079488;27;70072;-35
2021/12/09 09:17:36;;;;;;;;;;;;;;;30.39;62.62;101024.75;5077326;27;65608;-34
2021/12/09 09:20:08;;;;;;;;;;;;;;;30.37;63.08;101027.69;5080924;27;69772;-36
2021/12/09 09:22:39;;;;;;;;;;;;;;;30.37;62.71;101026.81;5093352;27;65777;-35
2021/12/09 09:25:11;;;;;;;;;;;;;;;30.36;63.30;101026.00;5077236;27;69661;-34
2021/12/09 09:27:41;;;;;;;;;;;;;;;30.35;63.59;101028.94;5080281;27;66235;-34
2021/12/09 09:30:14;;;;;;;;;;;;;;;30.34;63.16;101032.66;5080881;27;68867;-35
2021/12/09 09:32:45;;;;;;;;;;;;;;;30.33;63.33;101031.00;5079587;27;66146;-34
2021/12/09 09:35:16;;;;;;;;;;;;;;;30.33;63.26;101031.84;5080261;27;68971;-35
2021/12/09 09:37:47;;;;;;;;;;;;;;;30.32;63.78;101029.38;5078436;27;65346;-34
2021/12/09 09:40:27;;;;;;;;;;;;;;;30.31;63.86;101033.91;5078550;27;70368;-35
2021/12/09 09:43:04;;;;;;;;;;;;;;;30.30;64.01;101032.25;5080141;27;65862;-33
2021/12/09 09:45:36;;;;;;;;;;;;;;;30.30;64.09;101042.25;5061264;27;70065;-34
2021/12/09 09:48:13;;;;;;;;;;;;;;;30.29;63.83;101044.16;5079440;27;66584;-35
2021/12/09 09:50:43;;;;;;;;;;;;;;;30.28;63.84;101051.44;5076533;27;69289;-35
2021/12/09 09:53:15;;;;;;;;;;;;;;;30.29;64.14;101046.84;5080925;27;66025;-34
2021/12/09 09:55:47;;;;;;;;;;;;;;;30.30;63.98;101050.38;5079427;27;69673;-33
2021/12/09 09:58:17;;;;;;;;;;;;;;;30.30;64.17;101053.09;5078135;27;66192;-34
2021/12/09 10:00:48;;;;;;;;;;;;;;;30.28;64.26;101051.44;5079056;27;69480;-34
2021/12/09 10:03:19;;;;;;;;;;;;;;;30.29;64.18;101057.69;5080279;27;66221;-34
2021/12/09 10:05:49;;;;;;;;;;;;;;;30.28;64.07;101056.84;5077470;27;70445;-35
2021/12/09 10:08:19;;;;;;;;;;;;;;;30.27;64.25;101060.56;5079962;27;65396;-33
2021/12/09 10:10:50;;;;;;;;;;;;;;;30.27;64.44;101071.41;5078410;27;69537;-34
2021/12/09 10:13:27;;;;;;;;;;;;;;;30.26;64.50;101077.88;5059531;28;65915;-35
2021/12/09 10:16:01;;;;;;;;;;;;;;;30.26;64.25;101064.34;5079591;27;70749;-33
2021/12/09 10:18:32;;;;;;;;;;;;;;;30.26;64.63;101069.75;5076441;27;66289;-34
2021/12/09 10:21:03;;;;;;;;;;;;;;;30.26;64.83;101080.56;5079689;27;70603;-35
2021/12/09 10:23:36;;;;;;;;;;;;;;;30.24;64.58;101074.53;5078340;27;66493;-34
2021/12/09 10:26:12;;;;;;;;;;;;;;;30.17;64.94;101065.59;5077815;27;64010;-35
2021/12/09 10:28:48;;;;;;;;;;;;;;;30.23;64.61;101075.59;5077747;27;65315;-34
2021/12/09 10:31:26;;;;;;;;;;;;;;;30.24;64.81;101081.81;5077099;27;69537;-34
2021/12/09 10:34:05;;;;;;;;;;;;;;;30.22;64.81;101090.16;5079443;27;66972;-34
2021/12/09 10:36:56;;;;;;;;;;;;;;;30.23;65.06;101089.13;5076998;27;69443;-34
2021/12/09 10:39:29;;;;;;;;;;;;;;;30.22;64.68;101090.16;5075634;27;65480;-35
2021/12/09 10:42:01;;;;;;;;;;;;;;;30.20;64.64;101086.81;5079180;27;70329;-34
2021/12/09 10:44:37;;;;;;;;;;;;;;;30.20;64.69;101084.09;5081117;27;65662;-34
2021/12/09 10:47:13;;;;;;;;;;;;;;;30.20;64.68;101103.03;5078579;27;69243;-34
2021/12/09 10:49:49;;;;;;;;;;;;;;;30.20;64.53;101102.19;5080202;27;67063;-35
2021/12/09 10:52:42;;;;;;;;;;;;;;;30.19;65.21;101104.06;5079183;27;70018;-34
2021/12/09 10:55:17;;;;;;;;;;;;;;;30.21;65.44;101103.88;5089279;27;65638;-34
2021/12/09 10:57:54;;;;;;;;;;;;;;;30.22;66.12;101105.56;5080123;27;69584;-34
2021/12/09 11:00:28;;;;;;;;;;;;;;;30.20;65.85;101103.03;5060992;28;66433;-34
2021/12/09 11:03:01;;;;;;;;;;;;;;;30.22;66.10;101110.97;5080614;27;69840;-34
2021/12/09 11:05:32;;;;;;;;;;;;;;;30.21;66.27;101104.69;5079746;27;66529;-34
2021/12/09 11:08:17;;;;;;;;;;;;;;;30.21;66.34;101106.56;5062169;27;68920;-34
2021/12/09 11:11:11;;;;;;;;;;;;;;;30.21;66.24;101110.09;5079503;27;67419;-34
2021/12/09 11:13:45;;;;;;;;;;;;;;;30.22;65.94;101102.84;5080619;27;70134;-35
2021/12/09 11:16:23;;;;;;;;;;;;;;;30.15;66.48;101094.72;5078791;27;65796;-34
2021/12/09 11:19:04;;;;;;;;;;;;;;;30.22;65.97;101114.50;5075699;27;69880;-34
2021/12/09 11:21:44;;;;;;;;;;;;;;;30.21;66.25;101115.50;5092012;27;65860;-34
2021/12/09 11:24:17;;;;;;;;;;;;;;;30.21;65.87;101109.28;5078868;27;68938;-34
2021/12/09 11:29:25;;;;;;;;;;;;;;;30.20;66.41;101113.88;5077577;27;70493;-34
2021/12/09 11:32:09;;;;;;;;;;;;;;;30.20;66.35;101124.69;5082188;27;65363;-36
2021/12/09 11:34:45;;;;;;;;;;;;;;;30.20;66.22;101129.25;5079932;27;70310;-34
2021/12/09 11:40:00;;;;;;;;;;;;;;;30.19;65.57;101133.81;5077463;27;70555;-34
2021/12/09 11:42:47;;;;;;;;;;;;;;;30.20;65.92;101140.94;5078510;27;65556;-35
2021/12/09 11:45:19;;;;;;;;;;;;;;;30.19;65.80;101150.06;5058589;28;69193;-40
2021/12/09 11:47:50;;;;;;;;;;;;;;;30.20;66.08;101154.44;5077290;27;66307;-35
2021/12/09 11:50:31;;;;;;;;;;;;;;;30.20;65.62;101157.16;5076726;27;69397;-34
2021/12/09 11:53:04;;;;;;;;;;;;;;;30.20;66.13;101157.16;5090527;27;66600;-34
2021/12/09 11:55:48;;;;;;;;;;;;;;;30.20;66.07;101150.88;5078982;27;70008;-34
2021/12/09 11:58:31;;;;;;;;;;;;;;;30.20;66.28;101159.00;5078566;27;66290;-34
2021/12/09 12:07:32;;;;;;;;;;;;;;;30.19;65.99;101155.47;5076690;27;70063;-34
2021/12/09 12:13:03;;;;;;;;;;;;;;;30.20;66.72;101162.56;5074122;27;70072;-33
2021/12/09 12:18:48;;;;;;;;;;;;;;;30.20;66.79;101165.28;5060716;27;70530;-35
2021/12/09 12:27:42;;;;;;;;;;;;;;;30.18;66.91;101167.34;5081483;27;66561;-35
2021/12/09 12:30:41;;;;;;;;;;;;;;;29.82;69.14;101160.47;5088276;27;70311;-33
2021/12/09 12:33:31;;;;;;;;;;;;;;;29.76;70.13;101180.22;5076675;27;66356;-36
2021/12/09 12:36:19;;;;;;;;;;;;;;;29.64;70.98;101189.97;5075917;27;69506;-33
2021/12/09 12:39:10;;;;;;;;;;;;;;;29.56;71.57;101198.22;5071738;27;65834;-34
2021/12/09 12:42:02;;;;;;;;;;;;;;;29.52;71.16;101194.28;5083206;27;70168;-35
2021/12/09 12:44:32;;;;;;;;;;;;;;;29.47;71.49;101188.66;5079407;27;65688;-34
2021/12/09 12:47:15;;;;;;;;;;;;;;;29.44;72.13;101189.06;5077960;27;69420;-34
2021/12/09 12:50:05;;;;;;;;;;;;;;;29.39;71.89;101192.34;5076051;27;66353;-35
2021/12/09 12:52:37;;;;;;;;;;;;;;;29.37;72.08;101194.44;5079043;27;70331;-35
2021/12/09 12:55:13;;;;;;;;;;;;;;;29.36;71.72;101196.31;5076845;28;66396;-35
2021/12/09 12:57:48;;;;;;;;;;;;;;;29.35;71.68;101210.03;5078305;27;70013;-34
2021/12/09 13:00:31;;;;;;;;;;;;;;;29.34;72.37;101216.47;5080134;27;66300;-35
2021/12/09 13:03:17;;;;;;;;;;;;;;;29.31;72.33;101223.13;5081161;27;70382;-35
2021/12/09 13:11:38;;;;;;;;;;;;;;;29.31;72.66;101233.91;5079292;27;66194;-35
2021/12/09 13:14:20;;;;;;;;;;;;;;;29.31;72.95;101233.91;5078766;27;70215;-36
2021/12/09 13:17:02;;;;;;;;;;;;;;;29.31;72.73;101235.75;5077748;27;65410;-35
2021/12/09 13:20:04;;;;;;;;;;;;;;;29.29;72.70;101230.59;5077096;27;70560;-35
2021/12/09 13:22:45;;;;;;;;;;;;;;;29.28;72.91;101234.31;5074483;27;66526;-34
2021/12/09 13:25:25;;;;;;;;;;;;;;;29.27;72.88;101232.63;5077004;27;69332;-35
2021/12/09 13:30:50;;;;;;;;;;;;;;;29.29;73.05;101241.38;5065397;27;70266;-35
2021/12/09 13:33:46;;;;;;;;;;;;;;;29.31;73.13;101250.13;5077967;27;65044;-36
2021/12/09 13:36:32;;;;;;;;;;;;;;;29.32;73.52;101246.38;5077806;27;69912;-35
2021/12/09 13:47:45;;;;;;;;;;;;;;;29.31;73.04;101244.72;5077826;27;69117;-34
2021/12/09 13:50:44;;;;;;;;;;;;;;;29.29;73.08;101244.09;5077348;27;66488;-34